Skip to main content

NOAA/GLERL Met Station at Muskegon, MI

Previous 5 days (top of hour only)
See also Previous 3 Hours (2 minute increments)
Jump down to Data
Switch to [English][Metric]
Zoom: Click and drag, Pan: shift-click and drag, Unzoom: double-click, Unzoom All






Note: Speed = mean wind during 2-minute period at top of hour,
Gust = max wind during 2-minute period at top of hour,
Peak = max wind during entire hour.
• See also 5-day windrose plot


NOAA/GLERL Met Station at Muskegon, MI

Previous 5 days (top of hour only)
See also Previous 3 Hours (2 minute increments)
Jump up to Graphs
Switch to [English][Metric]
                  Wind  Wind  Wind   Air   Dew   Rel     Sta   PAR
                   Spd   Gst   Dir  Temp    Pt   Hum    Pres uE/m2/
YYYY-MM-DD   EST   kts   kts   deg     F     F     %   in Hg   sec
2018-12-11 09:00  14.6  19.4   313  29.8  24.7  81.0   29.38    53
2018-12-11 08:00  14.6  16.7   303  30.9  25.2  79.0   29.37     5
2018-12-11 07:00  16.9  18.5   304  31.5  25.3  77.6   29.37     2
2018-12-11 06:00  15.9  17.3   305  32.2  25.9  77.3   29.36     2
2018-12-11 05:00  16.9  19.4   293  32.9  26.1  75.9   29.37     2
2018-12-11 04:00  17.7  19.8   295  33.3  26.8  76.8   29.39     2
2018-12-11 03:00  22.7  25.7   293  33.1  26.3  75.8   29.40     2
2018-12-11 02:00  22.2  25.1   288  32.9  26.3  76.4   29.40     2
2018-12-11 01:00  22.0  25.5   290  33.6  27.0  76.4   29.40     2
2018-12-11 00:00  22.0  25.7   265  34.2  28.1  78.1   29.41     2
2018-12-10 23:00  22.6  24.7   267  34.9  28.0  75.6   29.42     2
2018-12-10 22:00  21.2  24.5   271  34.9  27.6  74.6   29.43     2
2018-12-10 21:00  22.7  25.3   259  35.6  28.7  75.8   29.44     2
2018-12-10 20:00  21.4  23.9   255  36.7  29.0  73.3   29.45     2
2018-12-10 19:00  22.4  23.3   244  35.8  28.7  75.3   29.47     2
2018-12-10 18:00  19.8  22.2   250  35.2  28.5  76.2   29.49     2
2018-12-10 17:00  18.3  19.8   243  34.5  28.3  77.7   29.50    44
2018-12-10 16:00  15.2  17.5   236  34.5  26.4  71.9   29.51   873
2018-12-10 15:00  15.7  17.7   251  34.7  25.3  68.2   29.52  1389
2018-12-10 14:00  15.0  16.7   255  34.0  24.6  68.3   29.54  1608
2018-12-10 13:00  11.5  12.6   276  34.0  25.4  70.6   29.56  1657
2018-12-10 12:00  13.0  15.0   284  33.6  24.2  68.1   29.59  1623
2018-12-10 11:00  11.9  13.0   290  33.6  25.8  72.8   29.61  1542
2018-12-10 10:00   9.9  11.1   287  33.6  26.5  75.0   29.60   422
2018-12-10 09:00   8.6   9.5   309  33.4  26.1  74.3   29.60   199
2018-12-10 08:00   7.8   8.6   316  33.3  26.0  74.4   29.60     7
2018-12-10 07:00   7.8   8.9   315  33.3  26.0  74.3   29.60     2
2018-12-10 06:00   0.2   0.8   116  29.5  25.5  84.8   29.60     2
2018-12-10 05:00   2.1   2.7   154  29.1  24.8  83.7   29.61     2
2018-12-10 04:00   2.9   3.3   131  29.3  24.7  82.7   29.61     2
2018-12-10 03:00   1.9   2.1   152  29.1  24.5  82.5   29.62     2
2018-12-10 02:00   4.1   4.5   107  29.1  24.5  82.6   29.62     2
2018-12-10 01:00   4.1   4.9   101  28.9  24.6  83.7   29.63     2
2018-12-10 00:00   4.7   5.4   110  28.8  24.8  85.0   29.64     2
2018-12-09 23:00   5.1   6.0    74  29.3  25.2  84.6   29.65     2
2018-12-09 22:00   1.0   2.5    27  28.6  24.3  83.9   29.64     2
2018-12-09 21:00   3.5   5.6    23  30.2  25.4  82.0   29.67     2
2018-12-09 20:00   9.3  12.1   330  28.8  24.6  84.4   29.67     2
2018-12-09 19:00   5.8   7.0   340  28.4  23.9  83.0   29.67     2
2018-12-09 18:00   4.7   6.4   325  27.9  22.9  81.5   29.68     2
2018-12-09 17:00   7.0   8.4   313  28.6  23.8  82.0   29.68    19
2018-12-09 16:00   5.6   6.4   298  28.9  24.2  82.1   29.68    77
2018-12-09 15:00  10.7  12.2   306  28.8  23.8  81.5   29.69   195
2018-12-09 14:00   8.7  10.3   317  29.1  23.7  80.1   29.71   196
2018-12-09 13:00   9.9  11.7   321  29.8  24.2  79.3   29.71   268
2018-12-09 12:00   9.9  12.4   296  30.4  24.3  77.9   29.73   328
2018-12-09 11:00   9.5  12.1   326  30.7  24.2  76.3   29.75   378
2018-12-09 10:00  10.7  12.1   297  31.3  23.6  72.8   29.74   402
2018-12-09 09:00   8.9  10.9   299  30.7  23.5  74.1   29.74   140
2018-12-09 08:00   9.9  12.1   291  30.4  24.2  77.4   29.74     8
2018-12-09 07:00   9.7  10.9   294  30.4  23.7  75.8   29.75     2
2018-12-09 06:00   9.7  12.1   295  30.7  24.0  75.9   29.76     2
2018-12-09 05:00  10.5  12.4   294  31.3  24.0  74.1   29.76     2
2018-12-09 04:00  10.5  11.7   278  31.5  24.1  73.9   29.78     2
2018-12-09 03:00   7.4   9.5   273  31.3  23.7  73.3   29.80     2
2018-12-09 02:00   9.5  10.5   250  31.1  23.5  73.1   29.82     2
2018-12-09 01:00   8.9  10.9   245  30.7  23.3  73.5   29.83     2
2018-12-09 00:00   8.6  10.7   258  30.4  22.3  71.6   29.84     2
2018-12-08 23:00  10.7  12.6   263  30.6  22.8  72.6   29.86     2
2018-12-08 22:00   8.4   9.3   270  30.2  22.4  72.4   29.86     2
2018-12-08 21:00   7.0   7.6   253  29.7  21.0  69.9   29.88     2
2018-12-08 20:00   9.9  10.5   273  29.3  20.1  68.1   29.89     2
2018-12-08 19:00   5.1   6.2   284  28.9  19.5  67.5   29.89     2
2018-12-08 18:00   3.7   4.7   291  28.4  18.3  65.6   29.91     2
2018-12-08 17:00   4.1   5.4   295  28.4  18.2  65.4   29.91    29
2018-12-08 16:00   6.6   8.2   294  28.6  19.1  67.2   29.91   164
2018-12-08 15:00   7.2   8.6   312  28.6  18.4  65.3   29.92   285
2018-12-08 14:00   8.4   9.7   315  28.8  19.0  66.5   29.93   442
2018-12-08 13:00   6.4  10.3   348  28.4  17.3  62.8   29.91   576
2018-12-08 12:00  11.7  14.8   346  28.2  18.4  66.2   29.94   576
2018-12-08 11:00  11.5  12.8   350  27.7  16.4  62.3   29.97   335
2018-12-08 10:00   9.3  11.3     3  26.8  16.6  65.2   29.96   125
2018-12-08 09:00  10.5  12.4     3  27.1  18.2  68.8   29.95    38
2018-12-08 08:00  12.4  14.8   352  26.4  16.8  66.8   29.95     4
2018-12-08 07:00  17.3  20.2   331  26.6  17.3  67.7   29.93     2
2018-12-08 06:00  13.6  15.0   335  26.4  17.0  67.2   29.91     2
2018-12-08 05:00  12.8  15.9     2  26.4  15.8  64.0   29.89     2
2018-12-08 04:00  15.6  19.2   333  27.0  15.3  61.2   29.91     2
2018-12-08 03:00  13.6  15.7   338  26.8  15.7  62.8   29.89     2
2018-12-08 02:00  15.0  17.5     3  26.2  15.0  62.3   29.87     2
2018-12-08 01:00  14.0  16.7   323  25.7  16.0  66.5   29.87     2
2018-12-08 00:00  13.0  15.9   334  25.3  14.9  64.2   29.86     2
2018-12-07 23:00  19.6  21.4   326  25.7  15.1  63.9   29.84     2
2018-12-07 22:00  20.0  22.7   343  25.5  14.6  63.0   29.84     2
2018-12-07 21:00  19.2  24.1   344  25.2  13.9  62.1   29.84     2
2018-12-07 20:00  15.7  20.8    10  23.5  10.1  56.2   29.82     2
2018-12-07 19:00  19.2  24.3   351  23.7  12.5  61.8   29.80     2
2018-12-07 18:00  19.8  23.1   339  23.0  12.2  63.0   29.82     2
2018-12-07 17:00  16.7  21.4   308  24.4  17.2  73.6   29.79     6
2018-12-07 16:00  15.2  17.9   291  24.8  17.8  74.3   29.78    23
2018-12-07 15:00  16.7  18.7   294  24.6  18.0  75.5   29.77    58
2018-12-07 14:00  15.6  18.3   264  24.6  17.1  72.9   29.80   176
2018-12-07 13:00  15.9  18.3   295  24.8  18.0  75.2   29.81   169
2018-12-07 12:00  17.9  20.4   275  26.2  18.5  72.4   29.81   267
2018-12-07 11:00  18.1  20.0   271  27.0  18.5  70.0   29.81   251
2018-12-07 10:00  14.6  18.3   285  28.4  19.4  68.6   29.80   113
2018-12-07 09:00   8.0   8.9   276  27.9  20.1  72.3   29.80   104
2018-12-07 08:00   5.8   6.8   124  24.8  17.9  74.9   29.79     5
2018-12-07 07:00   3.5   4.5   117  24.8  18.2  75.8   29.79     2
2018-12-07 06:00   5.1   5.6   135  25.0  18.8  77.1   29.77     2
2018-12-07 05:00   6.6   8.2    81  24.8  17.9  74.8   29.77     2
2018-12-07 04:00   4.9   6.0    79  25.0  19.5  79.4   29.77     2
2018-12-07 03:00   7.0   8.7    57  25.3  20.9  83.1   29.77     2
2018-12-07 02:00   5.2   7.4    69  25.7  21.3  83.1   29.75     2
2018-12-07 01:00   5.2   6.2    51  27.1  21.2  78.2   29.74     2
2018-12-07 00:00   9.5  11.3    62  28.6  17.5  63.0   29.73     2
2018-12-06 23:00  12.4  13.8   342  30.2  16.5  56.3   29.70     2
2018-12-06 22:00  14.2  16.1   343  30.4  18.5  61.0   29.69     2
2018-12-06 21:00  13.6  18.1   351  30.0  17.9  60.4   29.68     2
2018-12-06 20:00  15.2  18.1   345  30.0  19.3  63.9   29.67     2
2018-12-06 19:00  13.6  15.2   345  30.2  19.6  64.3   29.65     2